• Join FlightAware (Why Join?)
  • Login
  • US Flag 
01:22PM EDT


 

Airport Tracker/Info


-or-


 

Live Flight TrackerFlight Track Log ✈ LYM1725 ✈ 08-May-2013 ✈ KDEN - KCOD

Flight Track Log - Related Links

Times and Time Zones

All times are in EDT time to prevent confusion due to time zone crossing. See the LYM1725 flight status page for this flight to view local times or setup timezone preferences in your user account.

Time Position Orientation Groundspeed Altitude Reporting Facility
EDT Latitude Longitude Course Direction KTS MPH feet Rate Location/Type
08:37AM 39.8333 -104.7333 320° Northwest 195 224 8,000  Level Denver TRACON
08:38AM 39.8667 -104.8000 303° West 211 243 9,300 1,560 Climbing Denver TRACON
08:39AM 39.8856 -104.8503 296° West 204 235 10,700 1,680 Climbing Denver Center
08:40AM 39.9128 -104.9172 298° West 207 238 12,400 1,380 Climbing Denver Center
08:41AM 39.9478 -104.9711 310° West 209 241 13,600 1,260 Climbing Denver Center
08:42AM 40.3798 -105.2517 320° Northwest  Level Estimated
08:42AM 40.0042 -104.9639 North 202 232 15,000  Level Denver Center
08:43AM 40.0594 -104.9550 North 200 230 16,500 1,320 Climbing Denver Center
08:44AM 40.1194 -104.9406 10° North 203 234 17,700 1,140 Climbing Denver Center
08:45AM 40.1764 -104.9286 North 207 238 18,900 1,080 Climbing Denver Center
08:46AM 40.2347 -104.9219 North 211 243 19,900 540 Climbing Denver Center
08:47AM 40.2989 -104.9131 North 233 268 20,000  Climbing Denver Center
08:48AM 40.3725 -104.9047 North 263 303 20,000  Level Denver Center
08:49AM 40.4531 -104.9183 353° North 274 315 20,000  Level Denver Center
08:50AM 40.5264 -104.9511 341° North 279 321 20,000  Level Denver Center
08:51AM 40.5994 -104.9844 341° North 280 322 20,000  Level Denver Center
08:52AM 40.6728 -105.0156 342° North 280 322 20,000  Level Denver Center
08:53AM 40.7447 -105.0433 344° North 282 325 20,000  Level Denver Center
08:54AM 40.8319 -105.1036 332° Northwest 271 312 20,000  Level Denver Center
08:55AM 40.8836 -105.1856 310° West 282 325 20,000  Level Denver Center
08:56AM 40.9378 -105.2603 314° West 281 323 20,000  Level Denver Center
08:57AM 40.9981 -105.3272 320° Northwest 281 323 20,000  Level Denver Center
08:58AM 41.0514 -105.3883 319° Northwest 283 326 20,000  Level Denver Center
08:59AM 41.1219 -105.4578 323° Northwest 283 326 20,000  Level Denver Center
09:00AM 41.1803 -105.5147 324° Northwest 276 318 20,100  Climbing Denver Center
09:01AM 41.2514 -105.5842 324° Northwest 282 325 20,000 -60 Descending Denver Center
09:02AM 41.3131 -105.6419 325° Northwest 283 326 20,000  Level Denver Center
09:03AM 41.3739 -105.7000 324° Northwest 281 323 20,100  Climbing Denver Center
09:04AM 41.4472 -105.7658 326° Northwest 283 326 20,000 -120 Descending Denver Center
09:05AM 41.5178 -105.8350 324° Northwest 281 323 19,900  Descending Denver Center
09:06AM 41.5853 -105.9144 319° Northwest 287 330 20,000  Climbing Denver Center
09:07AM 41.6450 -105.9761 322° Northwest 286 329 20,000  Level Denver Center
09:08AM 41.7061 -106.0336 325° Northwest 283 326 20,000  Level Denver Center
09:09AM 41.7794 -106.0994 326° Northwest 284 327 20,000  Level Denver Center
09:10AM 41.8411 -106.1561 326° Northwest 282 325 20,100  Climbing Denver Center
09:11AM 41.9031 -106.2156 324° Northwest 284 327 20,000 -60 Descending Denver Center
09:13AM 41.9731 -106.2850 324° Northwest 281 323 20,000  Level Denver Center
09:14AM 42.0339 -106.3456 324° Northwest 282 325 20,100  Climbing Denver Center
09:15AM 42.1044 -106.4169 323° Northwest 283 326 20,000 -60 Descending Denver Center
09:16AM 42.1656 -106.4775 324° Northwest 283 326 20,000  Level Denver Center
09:17AM 42.2272 -106.5389 324° Northwest 287 330 20,100  Climbing Denver Center
09:18AM 42.2986 -106.6069 325° Northwest 283 326 20,000 -60 Descending Denver Center
09:19AM 42.3600 -106.6689 323° Northwest 284 327 20,000  Level Denver Center
09:20AM 42.4239 -106.7275 326° Northwest 289 333 20,000  Level Denver Center
09:21AM 42.4944 -106.7969 324° Northwest 282 325 20,000  Level Denver Center
09:22AM 42.5561 -106.8589 324° Northwest 285 328 20,000  Level Denver Center
09:23AM 42.6250 -106.9256 325° Northwest 285 328 20,000  Level Denver Center
09:24AM 42.6878 -106.9906 323° Northwest 282 325 20,000  Level Denver Center
09:25AM 42.7486 -107.0497 324° Northwest 280 322 20,000  Level Denver Center
09:26AM 42.8081 -107.1117 323° Northwest 281 323 20,000  Level Denver Center
09:26AM 42.8461 -107.1500 324° Northwest 280 322 20,000  Level Salt Lake Center
09:27AM 42.8786 -107.1819 324° Northwest 281 323 20,000  Level Denver Center
09:28AM 42.9375 -107.2378 325° Northwest 281 323 20,000  Level Denver Center
09:29AM 43.0094 -107.3039 326° Northwest 280 322 20,000  Level Denver Center
09:30AM 43.0694 -107.3650 323° Northwest 280 322 20,000  Level Denver Center
09:31AM 43.1289 -107.4256 323° Northwest 279 321 20,100  Climbing Denver Center
09:31AM 43.1575 -107.4569 321° Northwest 278 320 20,000 -120 Descending Salt Lake Center
09:32AM 43.2264 -107.5283 323° Northwest 279 321 20,000  Level Salt Lake Center
09:33AM 43.2875 -107.5847 326° Northwest 277 319 20,000  Level Salt Lake Center
09:34AM 43.3469 -107.6439 324° Northwest 275 316 20,000  Level Salt Lake Center
09:35AM 43.4164 -107.7153 323° Northwest 278 320 20,100  Climbing Salt Lake Center
09:36AM 43.4756 -107.7753 324° Northwest 276 318 20,000 -60 Descending Salt Lake Center
09:37AM 43.5461 -107.8464 324° Northwest 280 322 20,000  Level Salt Lake Center
09:38AM 43.6044 -107.9083 322° Northwest 278 320 20,000  Level Salt Lake Center
09:39AM 43.6644 -107.9694 324° Northwest 280 322 20,000  Level Salt Lake Center
09:40AM 43.7339 -108.0422 323° Northwest 280 322 20,000  Level Salt Lake Center
09:41AM 43.7936 -108.1081 321° Northwest 284 327 20,000  Level Salt Lake Center
09:42AM 43.8536 -108.1719 322° Northwest 284 327 20,000  Level Salt Lake Center
09:44AM 43.9256 -108.2433 324° Northwest 284 327 20,000 -300 Level Salt Lake Center
09:45AM 43.9875 -108.3061 324° Northwest 285 328 19,500 -1,080 Descending Salt Lake Center
09:46AM 44.0608 -108.3889 321° Northwest 293 337 17,900 -1,500 Descending Salt Lake Center
09:47AM 44.1244 -108.4656 319° Northwest 303 349 16,500 -1,380 Descending Salt Lake Center
09:48AM 44.1914 -108.5367 323° Northwest 310 357 15,200 -1,440 Descending Salt Lake Center
09:49AM 44.2669 -108.6108 325° Northwest 306 352 13,600 -1,680 Descending Salt Lake Center
09:50AM 44.3303 -108.6736 325° Northwest 298 343 11,800 -1,800 Descending Salt Lake Center